sensor_id;sensor_type;location;lat;lon;timestamp;temperature;humidity
5196;DHT22;2617;51.006;12.436;2022-12-24T00:01:38;9.50;99.90
5196;DHT22;2617;51.006;12.436;2022-12-24T00:06:39;9.50;99.90
5196;DHT22;2617;51.006;12.436;2022-12-24T00:11:42;9.50;99.90
5196;DHT22;2617;51.006;12.436;2022-12-24T00:16:43;9.50;99.90
5196;DHT22;2617;51.006;12.436;2022-12-24T00:21:47;9.50;99.90
5196;DHT22;2617;51.006;12.436;2022-12-24T00:26:48;9.50;99.90
5196;DHT22;2617;51.006;12.436;2022-12-24T00:31:50;9.60;99.90
5196;DHT22;2617;51.006;12.436;2022-12-24T00:36:52;9.60;99.90
5196;DHT22;2617;51.006;12.436;2022-12-24T00:41:54;9.70;99.90
5196;DHT22;2617;51.006;12.436;2022-12-24T00:46:57;9.80;99.90
5196;DHT22;2617;51.006;12.436;2022-12-24T00:51:59;9.80;99.90
5196;DHT22;2617;51.006;12.436;2022-12-24T00:57:00;9.80;99.90
5196;DHT22;2617;51.006;12.436;2022-12-24T01:02:02;9.70;99.90
5196;DHT22;2617;51.006;12.436;2022-12-24T01:07:04;9.70;99.90
5196;DHT22;2617;51.006;12.436;2022-12-24T01:12:06;9.70;99.90
5196;DHT22;2617;51.006;12.436;2022-12-24T01:17:08;9.70;99.90
5196;DHT22;2617;51.006;12.436;2022-12-24T01:22:10;9.70;99.90
5196;DHT22;2617;51.006;12.436;2022-12-24T01:27:11;9.70;99.90
5196;DHT22;2617;51.006;12.436;2022-12-24T01:32:13;9.80;99.90
5196;DHT22;2617;51.006;12.436;2022-12-24T01:37:15;9.80;99.90
5196;DHT22;2617;51.006;12.436;2022-12-24T01:42:19;9.70;99.90
5196;DHT22;2617;51.006;12.436;2022-12-24T01:47:26;9.80;99.90
5196;DHT22;2617;51.006;12.436;2022-12-24T01:52:31;9.80;99.90
5196;DHT22;2617;51.006;12.436;2022-12-24T01:57:34;9.80;99.90
5196;DHT22;2617;51.006;12.436;2022-12-24T02:02:34;9.80;99.90
5196;DHT22;2617;51.006;12.436;2022-12-24T02:07:37;9.70;99.90
5196;DHT22;2617;51.006;12.436;2022-12-24T02:12:39;9.70;99.90
5196;DHT22;2617;51.006;12.436;2022-12-24T02:17:53;9.70;99.90
5196;DHT22;2617;51.006;12.436;2022-12-24T02:23:08;9.60;99.90
5196;DHT22;2617;51.006;12.436;2022-12-24T02:33:41;9.50;99.90
5196;DHT22;2617;51.006;12.436;2022-12-24T02:38:53;9.50;99.90
5196;DHT22;2617;51.006;12.436;2022-12-24T02:43:53;9.60;99.90
5196;DHT22;2617;51.006;12.436;2022-12-24T02:48:55;9.60;99.90
5196;DHT22;2617;51.006;12.436;2022-12-24T02:53:56;9.60;99.90
5196;DHT22;2617;51.006;12.436;2022-12-24T02:59:29;9.70;99.90
5196;DHT22;2617;51.006;12.436;2022-12-24T03:04:39;9.80;99.90
5196;DHT22;2617;51.006;12.436;2022-12-24T03:10:02;9.90;99.90
5196;DHT22;2617;51.006;12.436;2022-12-24T03:15:01;9.90;99.90
5196;DHT22;2617;51.006;12.436;2022-12-24T03:20:03;9.90;99.90
5196;DHT22;2617;51.006;12.436;2022-12-24T03:25:05;10.00;99.90
5196;DHT22;2617;51.006;12.436;2022-12-24T03:30:09;10.10;99.90
5196;DHT22;2617;51.006;12.436;2022-12-24T03:35:10;10.00;99.90
5196;DHT22;2617;51.006;12.436;2022-12-24T03:40:12;10.20;99.90
5196;DHT22;2617;51.006;12.436;2022-12-24T03:45:14;10.20;99.90
5196;DHT22;2617;51.006;12.436;2022-12-24T03:50:16;10.10;99.90
5196;DHT22;2617;51.006;12.436;2022-12-24T03:55:17;10.10;99.90
5196;DHT22;2617;51.006;12.436;2022-12-24T04:00:20;10.00;99.90
5196;DHT22;2617;51.006;12.436;2022-12-24T04:05:22;10.00;99.90
5196;DHT22;2617;51.006;12.436;2022-12-24T04:10:24;9.90;99.90
5196;DHT22;2617;51.006;12.436;2022-12-24T04:15:26;9.90;99.90
5196;DHT22;2617;51.006;12.436;2022-12-24T04:20:28;9.90;99.90
5196;DHT22;2617;51.006;12.436;2022-12-24T04:25:30;9.90;99.90
5196;DHT22;2617;51.006;12.436;2022-12-24T04:30:32;9.80;99.90
5196;DHT22;2617;51.006;12.436;2022-12-24T04:35:37;9.80;99.90
5196;DHT22;2617;51.006;12.436;2022-12-24T04:40:35;9.80;99.90
5196;DHT22;2617;51.006;12.436;2022-12-24T04:45:37;9.80;99.90
5196;DHT22;2617;51.006;12.436;2022-12-24T04:50:39;9.80;99.90
5196;DHT22;2617;51.006;12.436;2022-12-24T04:55:44;9.80;99.90
5196;DHT22;2617;51.006;12.436;2022-12-24T05:00:46;9.70;99.90
5196;DHT22;2617;51.006;12.436;2022-12-24T05:05:48;9.80;99.90
5196;DHT22;2617;51.006;12.436;2022-12-24T05:10:55;9.80;99.90
5196;DHT22;2617;51.006;12.436;2022-12-24T05:15:56;9.70;99.90
5196;DHT22;2617;51.006;12.436;2022-12-24T05:20:57;9.60;99.90
5196;DHT22;2617;51.006;12.436;2022-12-24T05:25:59;9.50;99.90
5196;DHT22;2617;51.006;12.436;2022-12-24T05:31:07;9.30;99.90
5196;DHT22;2617;51.006;12.436;2022-12-24T05:36:09;9.30;99.90
5196;DHT22;2617;51.006;12.436;2022-12-24T05:41:11;9.10;99.90
5196;DHT22;2617;51.006;12.436;2022-12-24T05:46:13;9.00;99.90
5196;DHT22;2617;51.006;12.436;2022-12-24T05:51:15;8.80;99.90
5196;DHT22;2617;51.006;12.436;2022-12-24T05:56:18;8.70;99.90
5196;DHT22;2617;51.006;12.436;2022-12-24T06:01:19;8.60;99.90
5196;DHT22;2617;51.006;12.436;2022-12-24T06:06:22;8.50;99.90
5196;DHT22;2617;51.006;12.436;2022-12-24T06:11:23;8.30;99.90
5196;DHT22;2617;51.006;12.436;2022-12-24T06:16:24;8.20;99.90
5196;DHT22;2617;51.006;12.436;2022-12-24T06:21:26;8.20;99.90
5196;DHT22;2617;51.006;12.436;2022-12-24T06:26:28;8.20;99.90
5196;DHT22;2617;51.006;12.436;2022-12-24T06:31:30;8.20;99.90
5196;DHT22;2617;51.006;12.436;2022-12-24T06:36:32;8.20;99.90
5196;DHT22;2617;51.006;12.436;2022-12-24T06:41:34;8.30;99.90
5196;DHT22;2617;51.006;12.436;2022-12-24T06:46:36;8.40;99.90
5196;DHT22;2617;51.006;12.436;2022-12-24T06:51:38;8.40;99.90
5196;DHT22;2617;51.006;12.436;2022-12-24T06:56:39;8.50;99.90
5196;DHT22;2617;51.006;12.436;2022-12-24T07:01:42;8.60;99.90
5196;DHT22;2617;51.006;12.436;2022-12-24T07:06:44;8.50;99.90
5196;DHT22;2617;51.006;12.436;2022-12-24T07:11:45;8.40;99.90
5196;DHT22;2617;51.006;12.436;2022-12-24T07:16:47;8.20;99.90
5196;DHT22;2617;51.006;12.436;2022-12-24T07:21:49;8.00;99.90
5196;DHT22;2617;51.006;12.436;2022-12-24T07:26:51;7.90;99.90
5196;DHT22;2617;51.006;12.436;2022-12-24T07:31:53;7.80;99.90
5196;DHT22;2617;51.006;12.436;2022-12-24T07:36:55;7.70;99.90
5196;DHT22;2617;51.006;12.436;2022-12-24T07:41:57;7.70;99.90
5196;DHT22;2617;51.006;12.436;2022-12-24T07:46:58;7.70;99.90
5196;DHT22;2617;51.006;12.436;2022-12-24T07:52:01;7.70;99.90
5196;DHT22;2617;51.006;12.436;2022-12-24T07:57:03;7.70;99.90
5196;DHT22;2617;51.006;12.436;2022-12-24T08:02:05;7.80;99.90
5196;DHT22;2617;51.006;12.436;2022-12-24T08:07:07;7.70;99.90
5196;DHT22;2617;51.006;12.436;2022-12-24T08:12:09;7.80;99.90
5196;DHT22;2617;51.006;12.436;2022-12-24T08:17:10;7.90;99.90
5196;DHT22;2617;51.006;12.436;2022-12-24T08:22:12;7.90;99.90
5196;DHT22;2617;51.006;12.436;2022-12-24T08:27:14;7.90;99.90
5196;DHT22;2617;51.006;12.436;2022-12-24T08:32:15;8.00;99.90
5196;DHT22;2617;51.006;12.436;2022-12-24T08:37:17;8.10;99.90
5196;DHT22;2617;51.006;12.436;2022-12-24T08:42:19;8.10;99.90
5196;DHT22;2617;51.006;12.436;2022-12-24T08:47:20;8.20;99.90
5196;DHT22;2617;51.006;12.436;2022-12-24T08:52:24;8.50;99.90
5196;DHT22;2617;51.006;12.436;2022-12-24T08:57:26;8.50;99.90
5196;DHT22;2617;51.006;12.436;2022-12-24T09:02:27;8.70;99.90
5196;DHT22;2617;51.006;12.436;2022-12-24T09:07:30;9.10;99.90
5196;DHT22;2617;51.006;12.436;2022-12-24T09:12:31;9.10;99.90
5196;DHT22;2617;51.006;12.436;2022-12-24T09:17:34;9.40;99.90
5196;DHT22;2617;51.006;12.436;2022-12-24T09:22:36;9.70;99.90
5196;DHT22;2617;51.006;12.436;2022-12-24T09:27:37;9.80;99.90
5196;DHT22;2617;51.006;12.436;2022-12-24T09:32:38;9.90;99.90
5196;DHT22;2617;51.006;12.436;2022-12-24T09:37:40;10.00;99.90
5196;DHT22;2617;51.006;12.436;2022-12-24T09:42:48;9.90;99.90
5196;DHT22;2617;51.006;12.436;2022-12-24T09:47:47;9.70;99.90
5196;DHT22;2617;51.006;12.436;2022-12-24T09:52:47;9.70;99.90
5196;DHT22;2617;51.006;12.436;2022-12-24T09:57:50;9.70;99.90
5196;DHT22;2617;51.006;12.436;2022-12-24T10:02:52;10.00;99.90
5196;DHT22;2617;51.006;12.436;2022-12-24T10:08:03;9.90;99.90
5196;DHT22;2617;51.006;12.436;2022-12-24T10:18:47;10.20;99.90
5196;DHT22;2617;51.006;12.436;2022-12-24T10:23:50;10.20;99.90
5196;DHT22;2617;51.006;12.436;2022-12-24T10:28:52;10.40;99.90
5196;DHT22;2617;51.006;12.436;2022-12-24T10:34:11;10.40;99.90
5196;DHT22;2617;51.006;12.436;2022-12-24T10:39:13;10.50;99.90
5196;DHT22;2617;51.006;12.436;2022-12-24T10:44:14;10.40;99.90
5196;DHT22;2617;51.006;12.436;2022-12-24T10:49:16;10.40;99.90
5196;DHT22;2617;51.006;12.436;2022-12-24T10:54:19;10.30;99.90
5196;DHT22;2617;51.006;12.436;2022-12-24T11:04:49;10.40;99.90
5196;DHT22;2617;51.006;12.436;2022-12-24T11:09:55;10.40;99.90
5196;DHT22;2617;51.006;12.436;2022-12-24T11:15:02;10.70;99.90
5196;DHT22;2617;51.006;12.436;2022-12-24T11:20:02;10.80;99.90
5196;DHT22;2617;51.006;12.436;2022-12-24T11:25:07;10.70;99.90
5196;DHT22;2617;51.006;12.436;2022-12-24T11:30:16;10.60;99.90
5196;DHT22;2617;51.006;12.436;2022-12-24T11:35:14;10.50;99.90
5196;DHT22;2617;51.006;12.436;2022-12-24T11:40:19;11.30;99.90
5196;DHT22;2617;51.006;12.436;2022-12-24T11:45:21;11.20;99.90
5196;DHT22;2617;51.006;12.436;2022-12-24T11:50:27;11.90;99.90
5196;DHT22;2617;51.006;12.436;2022-12-24T11:55:35;11.70;99.90
5196;DHT22;2617;51.006;12.436;2022-12-24T12:00:34;11.70;99.90
5196;DHT22;2617;51.006;12.436;2022-12-24T12:05:36;11.50;99.90
5196;DHT22;2617;51.006;12.436;2022-12-24T12:10:38;11.40;99.90
5196;DHT22;2617;51.006;12.436;2022-12-24T12:15:43;11.20;99.90
5196;DHT22;2617;51.006;12.436;2022-12-24T12:20:43;11.10;99.90
5196;DHT22;2617;51.006;12.436;2022-12-24T12:25:54;11.10;99.90
5196;DHT22;2617;51.006;12.436;2022-12-24T12:31:17;11.10;99.90
5196;DHT22;2617;51.006;12.436;2022-12-24T12:36:17;11.20;99.90
5196;DHT22;2617;51.006;12.436;2022-12-24T12:41:41;11.40;99.90
5196;DHT22;2617;51.006;12.436;2022-12-24T12:52:02;11.40;99.90
5196;DHT22;2617;51.006;12.436;2022-12-24T12:57:04;11.70;99.90
5196;DHT22;2617;51.006;12.436;2022-12-24T13:02:30;11.70;99.90
5196;DHT22;2617;51.006;12.436;2022-12-24T13:07:54;11.70;99.90
5196;DHT22;2617;51.006;12.436;2022-12-24T13:13:18;11.70;99.90
5196;DHT22;2617;51.006;12.436;2022-12-24T13:23:36;11.80;99.90
5196;DHT22;2617;51.006;12.436;2022-12-24T13:28:38;11.50;99.90
5196;DHT22;2617;51.006;12.436;2022-12-24T13:33:49;11.30;99.90
5196;DHT22;2617;51.006;12.436;2022-12-24T13:38:55;11.10;99.90
5196;DHT22;2617;51.006;12.436;2022-12-24T13:49:41;10.70;99.90
5196;DHT22;2617;51.006;12.436;2022-12-24T13:54:49;10.60;99.90
5196;DHT22;2617;51.006;12.436;2022-12-24T13:59:54;10.50;99.90
5196;DHT22;2617;51.006;12.436;2022-12-24T14:04:51;10.50;99.90
5196;DHT22;2617;51.006;12.436;2022-12-24T14:09:53;10.40;99.90
5196;DHT22;2617;51.006;12.436;2022-12-24T14:14:54;10.30;99.90
5196;DHT22;2617;51.006;12.436;2022-12-24T14:19:58;10.30;99.90
5196;DHT22;2617;51.006;12.436;2022-12-24T14:25:02;10.20;99.90
5196;DHT22;2617;51.006;12.436;2022-12-24T14:30:04;10.30;99.90
5196;DHT22;2617;51.006;12.436;2022-12-24T14:35:07;10.20;99.90
5196;DHT22;2617;51.006;12.436;2022-12-24T14:40:12;10.10;99.90
5196;DHT22;2617;51.006;12.436;2022-12-24T14:45:18;10.10;99.90
5196;DHT22;2617;51.006;12.436;2022-12-24T14:50:32;10.00;99.90
5196;DHT22;2617;51.006;12.436;2022-12-24T14:55:35;9.90;99.90
5196;DHT22;2617;51.006;12.436;2022-12-24T15:00:36;9.50;99.90
5196;DHT22;2617;51.006;12.436;2022-12-24T15:05:38;9.50;99.90
5196;DHT22;2617;51.006;12.436;2022-12-24T15:10:40;9.30;99.90
5196;DHT22;2617;51.006;12.436;2022-12-24T15:15:42;9.10;99.90
5196;DHT22;2617;51.006;12.436;2022-12-24T15:20:46;9.00;99.90
5196;DHT22;2617;51.006;12.436;2022-12-24T15:25:45;9.00;99.90
5196;DHT22;2617;51.006;12.436;2022-12-24T15:30:50;8.80;99.90
5196;DHT22;2617;51.006;12.436;2022-12-24T15:35:51;8.70;99.90
5196;DHT22;2617;51.006;12.436;2022-12-24T15:40:53;8.50;99.90
5196;DHT22;2617;51.006;12.436;2022-12-24T15:45:55;8.50;99.90
5196;DHT22;2617;51.006;12.436;2022-12-24T15:50:58;8.50;99.90
5196;DHT22;2617;51.006;12.436;2022-12-24T15:56:11;8.40;99.90
5196;DHT22;2617;51.006;12.436;2022-12-24T16:01:28;8.30;99.90
5196;DHT22;2617;51.006;12.436;2022-12-24T16:06:37;8.20;99.90
5196;DHT22;2617;51.006;12.436;2022-12-24T16:11:34;8.40;99.90
5196;DHT22;2617;51.006;12.436;2022-12-24T16:16:41;8.40;99.90
5196;DHT22;2617;51.006;12.436;2022-12-24T16:21:42;8.40;99.90
5196;DHT22;2617;51.006;12.436;2022-12-24T16:26:44;8.40;99.90
5196;DHT22;2617;51.006;12.436;2022-12-24T16:31:46;8.40;99.90
5196;DHT22;2617;51.006;12.436;2022-12-24T16:36:47;8.40;99.90
5196;DHT22;2617;51.006;12.436;2022-12-24T16:41:58;8.30;99.90
5196;DHT22;2617;51.006;12.436;2022-12-24T16:47:05;8.20;99.90
5196;DHT22;2617;51.006;12.436;2022-12-24T16:52:14;7.80;99.90
5196;DHT22;2617;51.006;12.436;2022-12-24T16:57:09;7.60;99.90
5196;DHT22;2617;51.006;12.436;2022-12-24T17:02:12;7.50;99.90
5196;DHT22;2617;51.006;12.436;2022-12-24T17:07:15;7.40;99.90
5196;DHT22;2617;51.006;12.436;2022-12-24T17:12:15;7.30;99.90
5196;DHT22;2617;51.006;12.436;2022-12-24T17:17:23;7.10;99.90
5196;DHT22;2617;51.006;12.436;2022-12-24T17:22:24;6.90;99.90
5196;DHT22;2617;51.006;12.436;2022-12-24T17:27:25;6.80;99.90
5196;DHT22;2617;51.006;12.436;2022-12-24T17:32:27;6.60;99.90
5196;DHT22;2617;51.006;12.436;2022-12-24T17:37:29;6.50;99.90
5196;DHT22;2617;51.006;12.436;2022-12-24T17:42:31;6.40;99.90
5196;DHT22;2617;51.006;12.436;2022-12-24T17:47:33;6.40;99.90
5196;DHT22;2617;51.006;12.436;2022-12-24T17:52:34;6.40;99.90
5196;DHT22;2617;51.006;12.436;2022-12-24T17:57:37;6.50;99.90
5196;DHT22;2617;51.006;12.436;2022-12-24T18:02:39;6.50;99.90
5196;DHT22;2617;51.006;12.436;2022-12-24T18:07:41;6.50;99.90
5196;DHT22;2617;51.006;12.436;2022-12-24T18:12:43;6.50;99.90
5196;DHT22;2617;51.006;12.436;2022-12-24T18:17:48;6.50;99.90
5196;DHT22;2617;51.006;12.436;2022-12-24T18:22:47;6.50;99.90
5196;DHT22;2617;51.006;12.436;2022-12-24T18:27:49;6.30;99.90
5196;DHT22;2617;51.006;12.436;2022-12-24T18:32:51;6.40;99.90
5196;DHT22;2617;51.006;12.436;2022-12-24T18:37:53;6.40;99.90
5196;DHT22;2617;51.006;12.436;2022-12-24T18:42:54;6.40;99.90
5196;DHT22;2617;51.006;12.436;2022-12-24T18:47:56;6.30;99.90
5196;DHT22;2617;51.006;12.436;2022-12-24T18:52:59;6.20;99.90
5196;DHT22;2617;51.006;12.436;2022-12-24T18:58:01;6.20;99.90
5196;DHT22;2617;51.006;12.436;2022-12-24T19:03:02;6.10;99.90
5196;DHT22;2617;51.006;12.436;2022-12-24T19:08:05;6.00;99.90
5196;DHT22;2617;51.006;12.436;2022-12-24T19:13:07;6.00;99.90
5196;DHT22;2617;51.006;12.436;2022-12-24T19:18:09;6.00;99.90
5196;DHT22;2617;51.006;12.436;2022-12-24T19:23:11;5.90;99.90
5196;DHT22;2617;51.006;12.436;2022-12-24T19:28:13;5.80;99.90
5196;DHT22;2617;51.006;12.436;2022-12-24T19:33:14;5.60;99.90
5196;DHT22;2617;51.006;12.436;2022-12-24T19:38:17;5.50;99.90
5196;DHT22;2617;51.006;12.436;2022-12-24T19:43:18;5.50;99.90
5196;DHT22;2617;51.006;12.436;2022-12-24T19:48:20;5.50;99.90
5196;DHT22;2617;51.006;12.436;2022-12-24T19:53:23;5.60;99.90
5196;DHT22;2617;51.006;12.436;2022-12-24T19:58:25;5.60;99.90
5196;DHT22;2617;51.006;12.436;2022-12-24T20:03:26;5.50;99.90
5196;DHT22;2617;51.006;12.436;2022-12-24T20:08:28;5.50;99.90
5196;DHT22;2617;51.006;12.436;2022-12-24T20:13:29;5.40;99.90
5196;DHT22;2617;51.006;12.436;2022-12-24T20:18:32;5.20;99.90
5196;DHT22;2617;51.006;12.436;2022-12-24T20:23:37;5.20;99.90
5196;DHT22;2617;51.006;12.436;2022-12-24T20:28:39;5.20;99.90
5196;DHT22;2617;51.006;12.436;2022-12-24T20:33:41;5.10;99.90
5196;DHT22;2617;51.006;12.436;2022-12-24T20:38:43;5.10;99.90
5196;DHT22;2617;51.006;12.436;2022-12-24T20:43:45;5.10;99.90
5196;DHT22;2617;51.006;12.436;2022-12-24T20:48:47;5.10;99.90
5196;DHT22;2617;51.006;12.436;2022-12-24T20:53:50;5.00;99.90
5196;DHT22;2617;51.006;12.436;2022-12-24T20:58:52;5.00;99.90
5196;DHT22;2617;51.006;12.436;2022-12-24T21:03:54;4.90;99.90
5196;DHT22;2617;51.006;12.436;2022-12-24T21:08:57;4.90;99.90
5196;DHT22;2617;51.006;12.436;2022-12-24T21:13:58;4.90;99.90
5196;DHT22;2617;51.006;12.436;2022-12-24T21:19:00;4.80;99.90
5196;DHT22;2617;51.006;12.436;2022-12-24T21:24:02;4.70;99.90
5196;DHT22;2617;51.006;12.436;2022-12-24T21:29:04;4.80;99.90
5196;DHT22;2617;51.006;12.436;2022-12-24T21:34:06;4.90;99.90
5196;DHT22;2617;51.006;12.436;2022-12-24T21:39:08;4.90;99.90
5196;DHT22;2617;51.006;12.436;2022-12-24T21:44:10;5.10;99.90
5196;DHT22;2617;51.006;12.436;2022-12-24T21:49:12;5.00;99.90
5196;DHT22;2617;51.006;12.436;2022-12-24T21:54:19;5.00;99.90
5196;DHT22;2617;51.006;12.436;2022-12-24T21:59:23;5.00;99.90
5196;DHT22;2617;51.006;12.436;2022-12-24T22:04:25;4.90;99.90
5196;DHT22;2617;51.006;12.436;2022-12-24T22:09:26;4.90;99.90
5196;DHT22;2617;51.006;12.436;2022-12-24T22:14:34;5.00;99.90
5196;DHT22;2617;51.006;12.436;2022-12-24T22:19:36;5.00;99.90
5196;DHT22;2617;51.006;12.436;2022-12-24T22:24:38;5.00;99.90
5196;DHT22;2617;51.006;12.436;2022-12-24T22:29:40;5.00;99.90
5196;DHT22;2617;51.006;12.436;2022-12-24T22:34:42;4.90;99.90
5196;DHT22;2617;51.006;12.436;2022-12-24T22:39:45;4.90;99.90
5196;DHT22;2617;51.006;12.436;2022-12-24T22:44:47;4.90;99.90
5196;DHT22;2617;51.006;12.436;2022-12-24T22:49:48;4.80;99.90
5196;DHT22;2617;51.006;12.436;2022-12-24T22:54:50;4.80;99.90
5196;DHT22;2617;51.006;12.436;2022-12-24T22:59:52;4.70;99.90
5196;DHT22;2617;51.006;12.436;2022-12-24T23:04:53;4.60;99.90
5196;DHT22;2617;51.006;12.436;2022-12-24T23:09:55;4.60;99.90
5196;DHT22;2617;51.006;12.436;2022-12-24T23:14:57;4.50;99.90
5196;DHT22;2617;51.006;12.436;2022-12-24T23:19:59;4.40;99.90
5196;DHT22;2617;51.006;12.436;2022-12-24T23:25:00;4.40;99.90
5196;DHT22;2617;51.006;12.436;2022-12-24T23:30:02;4.40;99.90
5196;DHT22;2617;51.006;12.436;2022-12-24T23:35:05;4.40;99.90
5196;DHT22;2617;51.006;12.436;2022-12-24T23:40:08;4.40;99.90
5196;DHT22;2617;51.006;12.436;2022-12-24T23:45:10;4.40;99.90
5196;DHT22;2617;51.006;12.436;2022-12-24T23:50:12;4.50;99.90
5196;DHT22;2617;51.006;12.436;2022-12-24T23:55:13;4.50;99.90
